Agua Dulce, Texas
Current Conditions -  °F | °C
As of 9:53 AM on Monday 24 Nov 2014 (Local Time) from KALI Reporting Station
Clear Clear  
Wind Chill: 62°   Ceiling: Unl
Heat Index: 62°   Visibility: 10mi
Dew Point: 37°   Wind: 20mph
Humidity: 39%   Direction: 10°N
Pressure: 30.1"   Gusts: 25mph
Location:  27.78°N, 97.91°W
Report Text: KALI 241553Z AUTO 01017G22KT 10SM CLR 17/03 A3010 RMK AO2 SLP192 T01670028
Loading
Personal Weather Stations






























Interactive Weather Map New forecast layout! Learn more

10-Day Weather Forecast

Advertisements
Track Severe Weather on mobile